createdAt,value
2023-05-02T00:00:01.132Z,79.24
2023-05-02T00:02:34.370Z,79.35
2023-05-02T00:05:07.962Z,79.55
2023-05-02T00:07:40.641Z,79.54
2023-05-02T00:10:13.598Z,79.71
2023-05-02T00:12:47.746Z,79.86
2023-05-02T00:15:20.500Z,80.06
2023-05-02T00:17:53.240Z,79.94
2023-05-02T00:20:26.317Z,80.35
2023-05-02T00:22:59.339Z,80.32
2023-05-02T00:25:32.043Z,80.15
2023-05-02T00:28:06.362Z,80.26
2023-05-02T00:30:43.564Z,80.04
2023-05-02T00:33:16.393Z,80.12
2023-05-02T00:35:49.035Z,80.08
2023-05-02T00:38:21.802Z,80.01
2023-05-02T00:40:54.580Z,80.13
2023-05-02T00:43:33.356Z,80.17
2023-05-02T00:46:06.517Z,80.19
2023-05-02T00:48:39.414Z,80.10
2023-05-02T00:51:13.957Z,80.16
2023-05-02T00:53:46.825Z,79.88
2023-05-02T00:56:19.610Z,79.59
2023-05-02T00:58:54.233Z,79.87
2023-05-02T01:01:35.213Z,79.68
2023-05-02T01:04:12.354Z,79.39
2023-05-02T01:06:54.829Z,79.33
2023-05-02T01:09:33.540Z,79.31
2023-05-02T01:12:12.071Z,79.82
2023-05-02T01:14:48.273Z,79.76
2023-05-02T01:17:22.093Z,79.66
2023-05-02T01:19:56.282Z,79.84
2023-05-02T01:22:30.573Z,80.12
2023-05-02T01:25:09.987Z,80.17
2023-05-02T01:27:49.121Z,80.26
2023-05-02T01:30:24.017Z,80.24
2023-05-02T01:32:59.404Z,80.24
2023-05-02T01:35:33.472Z,80.18
2023-05-02T01:38:07.319Z,80.10
2023-05-02T01:40:40.518Z,79.54
2023-05-02T01:43:14.404Z,79.94
2023-05-02T01:45:49.950Z,79.90
2023-05-02T01:48:23.283Z,79.51
2023-05-02T01:50:56.747Z,79.35
2023-05-02T01:53:30.822Z,79.25
2023-05-02T01:56:04.873Z,79.06
2023-05-02T01:58:38.590Z,78.77
2023-05-02T02:01:13.226Z,78.90
2023-05-02T02:03:46.655Z,79.34
2023-05-02T02:06:20.270Z,79.61
2023-05-02T02:08:53.242Z,79.65
2023-05-02T02:11:27.783Z,79.76
2023-05-02T02:14:03.520Z,79.74
2023-05-02T02:16:39.885Z,79.87
2023-05-02T02:19:15.565Z,79.69
2023-05-02T02:21:49.281Z,80.03
2023-05-02T02:24:24.085Z,79.93
2023-05-02T02:26:56.845Z,80.29
2023-05-02T02:29:29.637Z,80.04
2023-05-02T02:32:03.861Z,80.12
2023-05-02T02:34:36.707Z,80.46
2023-05-02T02:37:13.372Z,80.39
2023-05-02T02:39:52.917Z,80.37
2023-05-02T02:42:29.436Z,80.22
2023-05-02T02:45:07.111Z,80.70
2023-05-02T02:47:45.083Z,80.46
2023-05-02T02:50:20.822Z,80.43
2023-05-02T02:52:56.713Z,80.40
2023-05-02T02:55:37.955Z,80.20
2023-05-02T02:58:17.945Z,80.44
2023-05-02T03:00:50.923Z,80.22
2023-05-02T03:03:29.227Z,80.57
2023-05-02T03:06:02.763Z,80.43
2023-05-02T03:08:40.240Z,80.70
2023-05-02T03:11:12.902Z,80.43
2023-05-02T03:13:45.817Z,80.44
2023-05-02T03:16:42.632Z,80.16
2023-05-02T03:19:16.995Z,80.18
2023-05-02T03:21:49.788Z,80.33
2023-05-02T03:24:22.670Z,80.28
2023-05-02T03:26:56.110Z,80.52
2023-05-02T03:29:29.184Z,80.18
2023-05-02T03:32:02.215Z,80.27
2023-05-02T03:34:36.572Z,80.17
2023-05-02T03:37:09.395Z,80.07
2023-05-02T03:39:42.271Z,79.92
2023-05-02T03:42:15.322Z,79.97
2023-05-02T03:44:47.983Z,80.18
2023-05-02T03:47:20.886Z,80.05
2023-05-02T03:49:55.159Z,80.12
2023-05-02T03:52:28.882Z,80.40
2023-05-02T03:55:02.548Z,80.00
2023-05-02T03:57:35.247Z,80.17
2023-05-02T04:00:08.687Z,80.45
2023-05-02T04:02:41.531Z,80.30
2023-05-02T04:05:15.722Z,80.37
2023-05-02T04:07:48.880Z,80.07
2023-05-02T04:10:21.700Z,80.37
2023-05-02T04:12:54.423Z,80.36
2023-05-02T04:15:27.104Z,80.34
2023-05-02T04:18:00.110Z,80.16
2023-05-02T04:20:34.359Z,79.78
2023-05-02T04:23:07.058Z,80.01
2023-05-02T04:25:39.836Z,79.76
2023-05-02T04:28:12.636Z,80.16
2023-05-02T04:30:45.429Z,79.69
2023-05-02T04:33:18.521Z,79.83
2023-05-02T04:35:53.061Z,79.92
2023-05-02T04:38:25.882Z,79.97
2023-05-02T04:40:58.761Z,80.02
2023-05-02T04:43:31.594Z,80.29
2023-05-02T04:46:04.576Z,79.78
2023-05-02T04:48:37.393Z,79.94
2023-05-02T04:51:11.947Z,79.67
2023-05-02T04:53:44.737Z,79.64
2023-05-02T04:56:17.491Z,79.40
2023-05-02T04:58:50.148Z,79.31
2023-05-02T05:01:24.295Z,79.26
2023-05-02T05:03:57.353Z,79.18
2023-05-02T05:06:32.182Z,79.02
2023-05-02T05:09:05.203Z,78.94
2023-05-02T05:11:39.455Z,78.78
2023-05-02T05:14:12.166Z,78.56
2023-05-02T05:16:45.034Z,78.92
2023-05-02T05:19:17.721Z,78.73
2023-05-02T05:21:51.763Z,79.02
2023-05-02T05:24:24.513Z,79.22
2023-05-02T05:26:57.240Z,80.01
2023-05-02T05:29:32.774Z,80.47
2023-05-02T05:32:06.235Z,81.18
2023-05-02T05:34:39.259Z,81.67
2023-05-02T05:37:13.527Z,82.29
2023-05-02T05:39:47.590Z,82.31
2023-05-02T05:42:20.323Z,82.49
2023-05-02T05:44:52.982Z,82.48
2023-05-02T05:47:26.319Z,82.24
2023-05-02T05:49:59.326Z,82.40
2023-05-02T05:52:33.619Z,82.30
2023-05-02T05:55:06.899Z,82.13
2023-05-02T05:57:39.716Z,82.21
2023-05-02T06:00:13.303Z,82.03
2023-05-02T06:02:46.439Z,82.14
2023-05-02T06:05:19.250Z,82.04
2023-05-02T06:07:53.346Z,82.13
2023-05-02T06:10:26.221Z,82.37
2023-05-02T06:12:59.062Z,82.26
2023-05-02T06:15:34.159Z,82.09
2023-05-02T06:18:07.220Z,82.27
2023-05-02T06:20:39.927Z,82.61
2023-05-02T06:23:14.078Z,82.74
2023-05-02T06:25:47.175Z,82.79
2023-05-02T06:28:19.893Z,83.20
2023-05-02T06:30:57.869Z,83.34
2023-05-02T06:33:31.048Z,83.12
2023-05-02T06:36:06.132Z,82.48
2023-05-02T06:38:40.766Z,82.07
2023-05-02T06:41:16.533Z,81.50
2023-05-02T06:43:50.648Z,81.15
2023-05-02T06:46:23.466Z,81.21
2023-05-02T06:48:56.357Z,81.20
2023-05-02T06:51:29.171Z,80.71
2023-05-02T06:54:03.586Z,81.03
2023-05-02T06:56:36.316Z,81.20
2023-05-02T06:59:09.129Z,81.56
2023-05-02T07:01:42.124Z,81.66
2023-05-02T07:04:14.882Z,82.39
2023-05-02T07:06:48.158Z,82.85
2023-05-02T07:09:22.895Z,83.50
2023-05-02T07:11:55.634Z,84.20
2023-05-02T07:14:28.533Z,84.46
2023-05-02T07:17:01.367Z,84.40
2023-05-02T07:19:34.121Z,84.67
2023-05-02T07:22:06.928Z,84.74
2023-05-02T07:24:42.874Z,84.63
2023-05-02T07:27:16.511Z,84.27
2023-05-02T07:29:49.357Z,83.99
2023-05-02T07:32:22.762Z,83.85
2023-05-02T07:34:56.361Z,83.49
2023-05-02T07:37:34.455Z,83.35
2023-05-02T07:40:09.867Z,83.32
2023-05-02T07:42:42.857Z,83.20
2023-05-02T07:45:16.300Z,82.93
2023-05-02T07:47:49.249Z,83.11
2023-05-02T07:50:22.617Z,83.08
2023-05-02T07:52:55.904Z,82.67
2023-05-02T07:55:31.423Z,82.55
2023-05-02T07:58:04.133Z,82.21
2023-05-02T08:00:36.796Z,82.50
2023-05-02T08:03:09.744Z,82.47
2023-05-02T08:05:42.613Z,82.13
2023-05-02T08:08:15.484Z,82.10
2023-05-02T08:10:51.311Z,82.51
2023-05-02T08:13:24.014Z,82.76
2023-05-02T08:15:58.504Z,83.03
2023-05-02T08:18:31.439Z,83.23
2023-05-02T08:21:04.236Z,83.03
2023-05-02T08:23:37.666Z,82.37
2023-05-02T08:26:12.134Z,82.47
2023-05-02T08:28:44.815Z,82.91
2023-05-02T08:31:17.504Z,82.74
2023-05-02T08:33:50.681Z,82.54
2023-05-02T08:36:23.536Z,82.75
2023-05-02T08:38:56.228Z,82.29
2023-05-02T08:41:31.163Z,82.49
2023-05-02T08:44:04.123Z,83.45
2023-05-02T08:46:37.529Z,81.31
2023-05-02T08:49:11.806Z,81.34
2023-05-02T08:51:46.421Z,81.69
2023-05-02T08:54:21.284Z,81.61
2023-05-02T08:56:55.721Z,80.72
2023-05-02T08:59:28.376Z,78.94
2023-05-02T09:02:02.529Z,79.67
2023-05-02T09:04:35.446Z,77.50
2023-05-02T09:07:08.707Z,77.65
2023-05-02T09:09:42.201Z,75.91
2023-05-02T09:12:16.447Z,76.00
2023-05-02T09:15:09.366Z,78.13
2023-05-02T09:17:45.966Z,79.26
2023-05-02T09:20:18.777Z,80.27
2023-05-02T09:22:52.238Z,78.36
2023-05-02T09:25:24.973Z,76.63
2023-05-02T09:28:01.707Z,77.53
2023-05-02T09:30:34.542Z,75.36
2023-05-02T09:33:07.436Z,71.48
2023-05-02T09:35:54.620Z,74.63
2023-05-02T09:38:27.286Z,73.52
2023-05-02T09:41:00.557Z,76.89
2023-05-02T09:43:34.679Z,77.00
2023-05-02T09:46:08.127Z,72.86
2023-05-02T09:48:53.834Z,68.93
2023-05-02T09:51:26.655Z,74.72
2023-05-02T09:53:59.339Z,77.18
2023-05-02T09:56:32.248Z,77.42
2023-05-02T09:59:15.940Z,79.55
2023-05-02T10:01:56.086Z,77.04
2023-05-02T10:04:29.604Z,78.50
2023-05-02T10:07:03.136Z,75.42
2023-05-02T10:09:37.015Z,77.05
2023-05-02T10:12:10.059Z,71.92
2023-05-02T10:14:47.024Z,73.97
2023-05-02T10:17:23.263Z,72.94
2023-05-02T10:19:58.535Z,73.24
2023-05-02T10:22:32.067Z,66.83
2023-05-02T10:25:04.991Z,75.53
2023-05-02T10:27:38.046Z,66.55
2023-05-02T10:30:14.074Z,75.16
2023-05-02T10:32:47.574Z,71.57
2023-05-02T10:35:20.605Z,75.42
2023-05-02T10:37:53.927Z,72.59
2023-05-02T10:40:27.133Z,75.90
2023-05-02T10:42:59.931Z,75.81
2023-05-02T10:45:35.111Z,75.77
2023-05-02T10:48:17.638Z,78.29
2023-05-02T10:50:51.427Z,78.83
2023-05-02T10:53:34.581Z,70.70
2023-05-02T10:56:12.259Z,76.35
2023-05-02T10:58:45.281Z,78.07
2023-05-02T11:01:39.889Z,78.91
2023-05-02T11:04:12.860Z,79.93
2023-05-02T11:07:04.081Z,75.27
2023-05-02T11:09:36.757Z,73.92
2023-05-02T11:12:09.554Z,74.32
2023-05-02T11:14:49.720Z,75.22
2023-05-02T11:17:25.069Z,75.65
2023-05-02T11:20:25.832Z,74.25
2023-05-02T11:23:02.855Z,74.12
2023-05-02T11:25:43.104Z,69.95
2023-05-02T11:28:30.795Z,76.28
2023-05-02T11:31:03.818Z,76.10
2023-05-02T11:33:37.967Z,74.09
2023-05-02T11:36:10.781Z,71.77
2023-05-02T11:38:43.547Z,73.17
2023-05-02T11:41:16.910Z,74.70
2023-05-02T11:43:49.713Z,75.08
2023-05-02T11:46:23.177Z,76.48
2023-05-02T11:48:57.358Z,76.05
2023-05-02T11:51:30.163Z,75.49
2023-05-02T11:54:03.430Z,75.18
2023-05-02T11:56:36.145Z,76.38
2023-05-02T11:59:08.975Z,74.10
2023-05-02T12:01:48.547Z,71.70
2023-05-02T12:04:24.131Z,73.39
2023-05-02T12:06:57.341Z,74.13
2023-05-02T12:09:30.116Z,75.26
2023-05-02T12:12:03.434Z,74.15
2023-05-02T12:14:38.074Z,74.90
2023-05-02T12:17:10.774Z,75.67
2023-05-02T12:19:45.033Z,76.41
2023-05-02T12:22:18.159Z,76.10
2023-05-02T12:24:50.876Z,77.11
2023-05-02T12:27:23.643Z,74.50
2023-05-02T12:29:57.467Z,59.81
2023-05-02T12:32:31.021Z,68.77
2023-05-02T12:35:05.370Z,71.17
2023-05-02T12:37:38.099Z,65.38
2023-05-02T12:40:16.662Z,65.56
2023-05-02T12:43:04.434Z,64.50
2023-05-02T12:45:37.592Z,66.67
2023-05-02T12:48:20.140Z,61.27
2023-05-02T12:50:55.095Z,62.91
2023-05-02T12:53:41.073Z,65.37
2023-05-02T12:56:13.911Z,65.42
2023-05-02T12:58:47.784Z,69.10
2023-05-02T13:01:20.716Z,63.98
2023-05-02T13:03:53.481Z,67.45
2023-05-02T13:06:27.802Z,70.65
2023-05-02T13:09:00.578Z,72.24
2023-05-02T13:11:33.784Z,72.57
2023-05-02T13:14:06.468Z,70.51
2023-05-02T13:16:39.398Z,71.36
2023-05-02T13:19:12.145Z,73.42
2023-05-02T13:21:46.276Z,74.17
2023-05-02T13:24:18.957Z,75.07
2023-05-02T13:26:51.815Z,76.52
2023-05-02T13:29:24.603Z,77.21
2023-05-02T13:31:57.282Z,79.09
2023-05-02T13:34:30.109Z,80.99
2023-05-02T13:37:04.549Z,83.59
2023-05-02T13:39:37.245Z,82.85
2023-05-02T13:42:10.274Z,82.52
2023-05-02T13:44:42.976Z,81.57
2023-05-02T13:47:15.627Z,81.43
2023-05-02T13:49:48.371Z,74.74
2023-05-02T13:52:22.479Z,80.32
2023-05-02T13:54:55.125Z,79.56
2023-05-02T13:57:27.853Z,78.07
2023-05-02T14:00:00.852Z,77.50
2023-05-02T14:02:33.875Z,78.35
2023-05-02T14:05:07.188Z,77.95
2023-05-02T14:07:41.254Z,75.68
2023-05-02T14:10:14.057Z,76.88
2023-05-02T14:12:46.741Z,77.28
2023-05-02T14:15:19.565Z,75.18
2023-05-02T14:17:52.384Z,76.61
2023-05-02T14:20:25.210Z,78.04
2023-05-02T14:22:59.525Z,78.11
2023-05-02T14:25:32.254Z,77.81
2023-05-02T14:28:05.733Z,76.56
2023-05-02T14:30:38.424Z,76.66
2023-05-02T14:33:11.319Z,68.17
2023-05-02T14:35:44.359Z,74.39
2023-05-02T14:38:18.468Z,75.74
2023-05-02T14:40:51.457Z,70.58
2023-05-02T14:43:24.304Z,70.86
2023-05-02T14:45:57.260Z,72.14
2023-05-02T14:48:30.090Z,69.22
2023-05-02T14:51:04.586Z,71.65
2023-05-02T14:53:39.353Z,67.93
2023-05-02T14:56:17.225Z,68.69
2023-05-02T14:58:50.160Z,69.49
2023-05-02T15:01:23.479Z,72.68
2023-05-02T15:04:06.745Z,71.16
2023-05-02T15:06:40.327Z,70.90
2023-05-02T15:09:14.723Z,71.33
2023-05-02T15:11:47.350Z,72.39
2023-05-02T15:14:20.289Z,71.79
2023-05-02T15:16:52.997Z,72.18
2023-05-02T15:19:26.171Z,73.04
2023-05-02T15:21:58.804Z,71.56
2023-05-02T15:24:33.074Z,70.56
2023-05-02T15:27:06.100Z,71.85
2023-05-02T15:29:39.293Z,73.24
2023-05-02T15:32:12.069Z,73.25
2023-05-02T15:34:44.985Z,70.33
2023-05-02T15:37:17.691Z,73.88
2023-05-02T15:39:51.970Z,71.54
2023-05-02T15:42:24.636Z,74.20
2023-05-02T15:44:57.647Z,73.00
2023-05-02T15:47:30.678Z,74.19
2023-05-02T15:50:04.068Z,74.76
2023-05-02T15:52:37.035Z,74.66
2023-05-02T15:55:12.451Z,73.52
2023-05-02T15:57:45.167Z,74.86
2023-05-02T16:00:18.524Z,76.31
2023-05-02T16:02:51.301Z,74.28
2023-05-02T16:05:24.092Z,75.62
2023-05-02T16:07:56.779Z,75.30
2023-05-02T16:10:30.990Z,75.21
2023-05-02T16:13:03.765Z,75.78
2023-05-02T16:15:36.623Z,73.74
2023-05-02T16:18:09.368Z,74.21
2023-05-02T16:20:42.228Z,75.25
2023-05-02T16:23:14.903Z,73.65
2023-05-02T16:25:49.317Z,74.20
2023-05-02T16:28:22.024Z,74.31
2023-05-02T16:30:55.088Z,73.69
2023-05-02T16:33:27.889Z,72.75
2023-05-02T16:36:03.839Z,74.51
2023-05-02T16:38:37.442Z,73.80
2023-05-02T16:41:12.145Z,73.67
2023-05-02T16:43:44.808Z,73.00
2023-05-02T16:46:18.290Z,74.54
2023-05-02T16:48:51.027Z,74.70
2023-05-02T16:51:23.987Z,74.90
2023-05-02T16:53:56.710Z,74.41
2023-05-02T16:56:31.243Z,76.04
2023-05-02T16:59:04.094Z,74.96
2023-05-02T17:01:36.978Z,75.67
2023-05-02T17:04:09.877Z,73.96
2023-05-02T17:06:42.714Z,72.96
2023-05-02T17:09:15.855Z,75.46
2023-05-02T17:11:50.324Z,74.46
2023-05-02T17:14:23.668Z,75.52
2023-05-02T17:16:56.468Z,74.24
2023-05-02T17:19:29.617Z,70.24
2023-05-02T17:22:04.444Z,74.42
2023-05-02T17:24:37.363Z,73.27
2023-05-02T17:27:12.440Z,73.17
2023-05-02T17:29:45.236Z,74.72
2023-05-02T17:32:18.033Z,72.58
2023-05-02T17:34:50.853Z,73.75
2023-05-02T17:37:23.562Z,72.50
2023-05-02T17:39:56.280Z,71.46
2023-05-02T17:42:30.476Z,70.28
2023-05-02T17:45:04.431Z,70.66
2023-05-02T17:47:37.212Z,69.84
2023-05-02T17:50:10.512Z,69.89
2023-05-02T17:52:43.605Z,70.45
2023-05-02T17:55:18.860Z,71.23
2023-05-02T17:57:53.559Z,71.86
2023-05-02T18:00:26.815Z,72.83
2023-05-02T18:03:02.191Z,73.43
2023-05-02T18:05:38.678Z,74.10
2023-05-02T18:08:11.480Z,74.49
2023-05-02T18:10:44.491Z,74.95
2023-05-02T18:13:18.718Z,75.54
2023-05-02T18:15:56.309Z,75.82
2023-05-02T18:18:29.181Z,76.20
2023-05-02T18:21:02.600Z,76.78
2023-05-02T18:23:35.441Z,76.96
2023-05-02T18:26:13.092Z,76.94
2023-05-02T18:28:53.575Z,77.54
2023-05-02T18:31:26.506Z,77.41
2023-05-02T18:33:59.433Z,77.29
2023-05-02T18:36:32.284Z,77.63
2023-05-02T18:39:05.078Z,77.24
2023-05-02T18:41:39.531Z,77.35
2023-05-02T18:44:14.356Z,77.07
2023-05-02T18:46:47.693Z,77.18
2023-05-02T18:49:20.944Z,77.61
2023-05-02T18:51:54.597Z,77.40
2023-05-02T18:54:28.247Z,77.62
2023-05-02T18:57:02.231Z,77.78
2023-05-02T18:59:36.561Z,77.59
2023-05-02T19:02:10.327Z,77.77
2023-05-02T19:04:49.571Z,78.16
2023-05-02T19:07:22.575Z,78.27
2023-05-02T19:09:55.517Z,78.63
2023-05-02T19:12:28.411Z,78.59
2023-05-02T19:15:02.978Z,79.01
2023-05-02T19:17:36.169Z,79.16
2023-05-02T19:20:10.820Z,79.11
2023-05-02T19:22:43.926Z,79.21
2023-05-02T19:25:16.665Z,79.32
2023-05-02T19:27:49.983Z,79.33
2023-05-02T19:30:24.418Z,79.87
2023-05-02T19:32:57.231Z,79.54
2023-05-02T19:35:34.003Z,79.60
2023-05-02T19:38:06.761Z,79.68
2023-05-02T19:40:39.692Z,79.24
2023-05-02T19:43:12.379Z,79.05
2023-05-02T19:45:46.666Z,78.56
2023-05-02T19:48:19.561Z,78.00
2023-05-02T19:50:52.318Z,78.34
2023-05-02T19:53:25.040Z,78.28
2023-05-02T19:55:58.750Z,78.60
2023-05-02T19:58:32.003Z,78.53
2023-05-02T20:01:06.282Z,79.06
2023-05-02T20:03:39.181Z,78.98
2023-05-02T20:06:12.565Z,78.98
2023-05-02T20:08:45.458Z,79.16
2023-05-02T20:11:18.238Z,78.70
2023-05-02T20:13:51.053Z,79.02
2023-05-02T20:16:25.692Z,78.77
2023-05-02T20:18:58.752Z,78.94
2023-05-02T20:21:31.479Z,78.91
2023-05-02T20:24:04.411Z,79.01
2023-05-02T20:26:37.488Z,79.35
2023-05-02T20:29:10.665Z,79.15
2023-05-02T20:31:44.952Z,79.03
2023-05-02T20:34:18.179Z,78.42
2023-05-02T20:36:51.250Z,78.57
2023-05-02T20:39:24.844Z,79.00
2023-05-02T20:41:58.316Z,78.63
2023-05-02T20:44:33.833Z,78.58
2023-05-02T20:47:08.041Z,78.28
2023-05-02T20:49:40.808Z,78.19
2023-05-02T20:52:14.169Z,78.25
2023-05-02T20:54:47.792Z,78.29
2023-05-02T20:57:20.747Z,78.37
2023-05-02T20:59:53.567Z,78.41
2023-05-02T21:02:28.209Z,78.63
2023-05-02T21:05:01.045Z,78.82
2023-05-02T21:07:33.709Z,78.98
2023-05-02T21:10:07.258Z,79.28
2023-05-02T21:12:40.063Z,79.50
2023-05-02T21:15:14.426Z,79.60
2023-05-02T21:17:48.718Z,79.70
2023-05-02T21:20:21.544Z,79.87
2023-05-02T21:22:54.423Z,79.78
2023-05-02T21:25:27.223Z,80.17
2023-05-02T21:28:00.199Z,79.81
2023-05-02T21:30:33.071Z,79.83
2023-05-02T21:33:07.308Z,79.87
2023-05-02T21:35:40.139Z,79.82
2023-05-02T21:38:13.020Z,79.49
2023-05-02T21:40:45.808Z,79.51
2023-05-02T21:43:18.597Z,79.49
2023-05-02T21:45:51.275Z,79.33
2023-05-02T21:48:25.853Z,79.32
2023-05-02T21:50:58.650Z,79.11
2023-05-02T21:53:31.308Z,78.84
2023-05-02T21:56:04.228Z,78.52
2023-05-02T21:58:37.478Z,78.30
2023-05-02T22:01:10.347Z,77.93
2023-05-02T22:03:44.735Z,77.65
2023-05-02T22:06:17.627Z,77.53
2023-05-02T22:08:50.471Z,77.30
2023-05-02T22:11:24.342Z,76.83
2023-05-02T22:13:57.191Z,76.89
2023-05-02T22:16:30.083Z,76.70
2023-05-02T22:19:04.374Z,76.35
2023-05-02T22:21:37.185Z,76.21
2023-05-02T22:24:10.494Z,76.27
2023-05-02T22:26:43.609Z,76.25
2023-05-02T22:29:16.700Z,76.27
2023-05-02T22:31:50.027Z,76.35
2023-05-02T22:34:24.346Z,76.30
2023-05-02T22:36:57.353Z,76.30
2023-05-02T22:39:30.673Z,75.97
2023-05-02T22:42:03.795Z,76.37
2023-05-02T22:44:50.580Z,75.93
2023-05-02T22:47:26.905Z,75.95
2023-05-02T22:50:01.680Z,76.11
2023-05-02T22:52:37.919Z,76.09
2023-05-02T22:55:10.943Z,75.70
2023-05-02T22:57:44.400Z,75.99
2023-05-02T23:00:17.268Z,76.21
2023-05-02T23:02:50.293Z,76.23
2023-05-02T23:09:21.582Z,75.93
2023-05-02T23:15:41.667Z,76.29
2023-05-02T23:18:14.446Z,75.75
2023-05-02T23:20:52.896Z,76.20
2023-05-02T23:23:26.514Z,75.96
2023-05-02T23:26:01.152Z,76.12
2023-05-02T23:28:36.234Z,75.54
2023-05-02T23:31:09.182Z,76.14
2023-05-02T23:33:42.547Z,75.61
2023-05-02T23:36:15.726Z,75.79
2023-05-02T23:38:48.722Z,75.88
2023-05-02T23:41:23.478Z,75.56
2023-05-02T23:43:56.522Z,76.13
2023-05-02T23:46:29.533Z,76.39
2023-05-02T23:49:02.544Z,76.34
2023-05-02T23:51:44.769Z,75.92
2023-05-02T23:54:18.395Z,75.72
2023-05-02T23:56:54.572Z,75.61
2023-05-02T23:59:27.433Z,76.29
